Sibenik, Croatia
Current Conditions -  °F | °C
As of 2:30 PM on Wednesday 22 Oct 2014 (Local Time) from LDSP Reporting Station
Clear Clear  
Wind Chill: 55°   Ceiling: Unl
Heat Index: 55°   Visibility: 6mi
Dew Point: 43°   Wind: 5mph
Humidity: 63%   Direction: 10°N
Pressure: 29.65"   Gusts: NA
Location:  43.74°N, 15.89°E
Report Text: LDSP 221330Z 01004KT 320V070 CAVOK 13/06 Q1004 BECMG 34010KT
Loading
Personal Weather Stations






























Interactive Weather Map
Tropical Storm Tracking
New forecast layout! Learn more

10-Day Weather Forecast

Advertisements
Track Severe Weather on mobile